Time;durP1;ratioP1;P1;durP2;ratioP2;P2;SDS_P1;SDS_P2;PMS_P1;PMS_P2;Temp;Humidity;BMP_temperature;BMP_pressure;BME280_temperature;BME280_humidity;BME280_pressure;Samples;Min_cycle;Max_cycle;Signal;HPM_P1;HPM_P2
2022/12/10 00:01:04;;;;;;;;;;;;;;;;;;5076479;28;7147;-74
2022/12/10 00:03:29;;;;;;;;;;;;;;;;;;5076480;28;7426;-73
2022/12/10 00:05:59;;;;;;;;;;;;;;;;;;5076505;28;7118;-73
2022/12/10 00:08:24;;;;;;;;;;;;;;;;;;5076362;28;7477;-73
2022/12/10 00:10:50;;;;;;;;;;;;;;;;;;5076364;28;7092;-74
2022/12/10 00:13:28;;;;;;;;;;;;;;;;;;5076570;28;6967;-74
2022/12/10 00:15:54;;;;;;;;;;;;;;;;;;5077017;28;7046;-73
2022/12/10 00:18:30;;;;;;;;;;;;;;;;;;5076214;28;7035;-73
2022/12/10 00:20:56;;;;;;;;;;;;;;;;;;5076054;28;7441;-74
2022/12/10 00:23:22;;;;;;;;;;;;;;;;;;5075501;28;6931;-73
2022/12/10 00:25:48;;;;;;;;;;;;;;;;;;5076188;28;7110;-74
2022/12/10 00:28:22;;;;;;;;;;;;;;;;;;5057981;28;7010;-73
2022/12/10 00:30:48;;;;;;;;;;;;;;;;;;5075453;28;7037;-74
2022/12/10 00:36:09;;;;;;;;;;;;;;;;;;5076187;28;6760;-73
2022/12/10 00:38:35;;;;;;;;;;;;;;;;;;5075755;28;6820;-73
2022/12/10 00:41:02;;;;;;;;;;;;;;;;;;5075418;28;7156;-73
2022/12/10 00:43:28;;;;;;;;;;;;;;;;;;5075921;28;6966;-73
2022/12/10 00:45:54;;;;;;;;;;;;;;;;;;5074916;28;7383;-73
2022/12/10 00:48:27;;;;;;;;;;;;;;;;;;5075428;28;7216;-74
2022/12/10 00:50:57;;;;;;;;;;;;;;;;;;5075522;28;7042;-73
2022/12/10 00:53:23;;;;;;;;;;;;;;;;;;5075468;28;7393;-74
2022/12/10 00:55:49;;;;;;;;;;;;;;;;;;5075559;28;7072;-73
2022/12/10 00:58:14;;;;;;;;;;;;;;;;;;5075162;28;8141;-74
2022/12/10 01:00:40;;;;;;;;;;;;;;;;;;5075190;28;7374;-73
2022/12/10 01:03:06;;;;;;;;;;;;;;;;;;5075094;28;7001;-73
2022/12/10 01:05:32;;;;;;;;;;;;;;;;;;5076115;28;7375;-73
2022/12/10 01:07:58;;;;;;;;;;;;;;;;;;5057208;28;8873;-73
2022/12/10 01:10:24;;;;;;;;;;;;;;;;;;5075066;28;7225;-73
2022/12/10 01:12:50;;;;;;;;;;;;;;;;;;5075131;28;7374;-72
2022/12/10 01:15:37;;;;;;;;;;;;;;;;;;5075299;28;7220;-73
2022/12/10 01:18:09;;;;;;;;;;;;;;;;;;5075256;28;7438;-73
2022/12/10 01:20:36;;;;;;;;;;;;;;;;;;5075943;28;7416;-73
2022/12/10 01:23:02;;;;;;;;;;;;;;;;;;5074923;28;7138;-73
2022/12/10 01:25:27;;;;;;;;;;;;;;;;;;5075009;28;7266;-73
2022/12/10 01:27:53;;;;;;;;;;;;;;;;;;5075092;28;7075;-73
2022/12/10 01:30:37;;;;;;;;;;;;;;;;;;5074782;28;7417;-73
2022/12/10 01:33:03;;;;;;;;;;;;;;;;;;5074978;28;7174;-73
2022/12/10 01:35:35;;;;;;;;;;;;;;;;;;5057931;28;7156;-73
2022/12/10 01:38:00;;;;;;;;;;;;;;;;;;5075010;28;7037;-73
2022/12/10 01:40:27;;;;;;;;;;;;;;;;;;5074397;28;7005;-73
2022/12/10 01:42:52;;;;;;;;;;;;;;;;;;5074571;28;7407;-73
2022/12/10 01:45:39;;;;;;;;;;;;;;;;;;5074716;28;7139;-73
2022/12/10 01:51:09;;;;;;;;;;;;;;;;;;5074241;28;6903;-73
2022/12/10 01:53:35;;;;;;;;;;;;;;;;;;5074729;28;7601;-73
2022/12/10 01:56:09;;;;;;;;;;;;;;;;;;5075646;28;6900;-73
2022/12/10 01:58:35;;;;;;;;;;;;;;;;;;5079737;28;7121;-73
2022/12/10 02:01:19;;;;;;;;;;;;;;;;;;5078689;28;7204;-73
2022/12/10 02:06:52;;;;;;;;;;;;;;;;;;5078653;28;7019;-73
2022/12/10 02:09:27;;;;;;;;;;;;;;;;;;5079264;28;7527;-73
2022/12/10 02:12:00;;;;;;;;;;;;;;;;;;5078309;28;7221;-73
2022/12/10 02:17:19;;;;;;;;;;;;;;;;;;5078782;28;6986;-73
2022/12/10 02:19:58;;;;;;;;;;;;;;;;;;5078397;28;7485;-64
2022/12/10 02:22:26;;;;;;;;;;;;;;;;;;5059792;28;7213;-64
2022/12/10 02:24:55;;;;;;;;;;;;;;;;;;5038131;28;7005;-64
2022/12/10 02:27:31;;;;;;;;;;;;;;;;;;5038986;28;7432;-64
2022/12/10 02:29:58;;;;;;;;;;;;;;;;;;5038339;28;6932;-64
2022/12/10 02:32:36;;;;;;;;;;;;;;;;;;5038544;28;6993;-64
2022/12/10 02:35:08;;;;;;;;;;;;;;;;;;5038385;28;7047;-64
2022/12/10 02:37:58;;;;;;;;;;;;;;;;;;5038313;28;7072;-64
2022/12/10 02:40:27;;;;;;;;;;;;;;;;;;5038345;28;7412;-64
2022/12/10 02:43:00;;;;;;;;;;;;;;;;;;5038335;28;7330;-64
2022/12/10 02:45:29;;;;;;;;;;;;;;;;;;5038979;28;7249;-64
2022/12/10 02:48:04;;;;;;;;;;;;;;;;;;5037894;28;7160;-64
2022/12/10 02:50:30;;;;;;;;;;;;;;;;;;5037660;28;7128;-64
2022/12/10 02:52:55;;;;;;;;;;;;;;;;;;5037905;28;7179;-64
2022/12/10 02:55:51;;;;;;;;;;;;;;;;;;5037864;28;7079;-64
2022/12/10 02:58:25;;;;;;;;;;;;;;;;;;5037968;28;7393;-64
2022/12/10 03:01:14;;;;;;;;;;;;;;;;;;5037691;28;7154;-64
2022/12/10 03:03:47;;;;;;;;;;;;;;;;;;5019922;28;7204;-64
2022/12/10 03:06:25;;;;;;;;;;;;;;;;;;5038494;28;7426;-64
2022/12/10 03:08:50;;;;;;;;;;;;;;;;;;5036708;28;7194;-64
2022/12/10 03:11:22;;;;;;;;;;;;;;;;;;5037306;28;7102;-64
2022/12/10 03:14:13;;;;;;;;;;;;;;;;;;5037405;28;7098;-64
2022/12/10 03:16:42;;;;;;;;;;;;;;;;;;5038018;28;7450;-64
2022/12/10 03:19:11;;;;;;;;;;;;;;;;;;5037144;28;7369;-73
2022/12/10 03:21:56;;;;;;;;;;;;;;;;;;5037251;28;7195;-73
2022/12/10 03:24:37;;;;;;;;;;;;;;;;;;5037075;28;7080;-73
2022/12/10 03:27:05;;;;;;;;;;;;;;;;;;5037353;28;7297;-73
2022/12/10 03:32:27;;;;;;;;;;;;;;;;;;5037400;28;6772;-73
2022/12/10 03:35:21;;;;;;;;;;;;;;;;;;5037826;28;7202;-73
2022/12/10 03:37:49;;;;;;;;;;;;;;;;;;5037878;28;8159;-73
2022/12/10 03:40:21;;;;;;;;;;;;;;;;;;5036632;28;7072;-73
2022/12/10 03:42:47;;;;;;;;;;;;;;;;;;5036816;28;7543;-73
2022/12/10 03:45:14;;;;;;;;;;;;;;;;;;5038059;28;6925;-73
2022/12/10 03:47:40;;;;;;;;;;;;;;;;;;5036524;28;6836;-72
2022/12/10 03:53:32;;;;;;;;;;;;;;;;;;5036601;28;6709;-73
2022/12/10 03:55:58;;;;;;;;;;;;;;;;;;5036683;28;7106;-72
2022/12/10 03:58:24;;;;;;;;;;;;;;;;;;5036498;28;7038;-73
2022/12/10 04:00:52;;;;;;;;;;;;;;;;;;5036439;28;7259;-73
2022/12/10 04:03:17;;;;;;;;;;;;;;;;;;5036188;28;7807;-73
2022/12/10 04:05:44;;;;;;;;;;;;;;;;;;5036506;28;7458;-73
2022/12/10 04:08:10;;;;;;;;;;;;;;;;;;5036352;28;7101;-73
2022/12/10 04:10:36;;;;;;;;;;;;;;;;;;5036796;28;7445;-73
2022/12/10 04:18:50;;;;;;;;;;;;;;;;;;5036471;28;6792;-73
2022/12/10 04:27:11;;;;;;;;;;;;;;;;;;4999658;28;7371;-64
2022/12/10 04:29:37;;;;;;;;;;;;;;;;;;5035988;28;7419;-64
2022/12/10 04:32:02;;;;;;;;;;;;;;;;;;5036005;28;7031;-64
2022/12/10 04:34:38;;;;;;;;;;;;;;;;;;5036147;28;6887;-64
2022/12/10 04:37:05;;;;;;;;;;;;;;;;;;5036428;28;7177;-64
2022/12/10 04:39:42;;;;;;;;;;;;;;;;;;5035793;28;7371;-64
2022/12/10 04:42:08;;;;;;;;;;;;;;;;;;5035634;28;7263;-64
2022/12/10 04:44:34;;;;;;;;;;;;;;;;;;5035943;28;7136;-64
2022/12/10 04:47:00;;;;;;;;;;;;;;;;;;5035782;28;7169;-64
2022/12/10 04:49:33;;;;;;;;;;;;;;;;;;5035522;28;7138;-64
2022/12/10 04:51:59;;;;;;;;;;;;;;;;;;5035579;28;7011;-64
2022/12/10 04:54:26;;;;;;;;;;;;;;;;;;5035544;28;7408;-64
2022/12/10 04:56:51;;;;;;;;;;;;;;;;;;5035437;28;7104;-64
2022/12/10 04:59:18;;;;;;;;;;;;;;;;;;5035421;28;6991;-64
2022/12/10 05:01:45;;;;;;;;;;;;;;;;;;5035449;28;6925;-64
2022/12/10 05:04:14;;;;;;;;;;;;;;;;;;5035413;28;7249;-64
2022/12/10 05:06:40;;;;;;;;;;;;;;;;;;5035267;28;7136;-64
2022/12/10 05:09:05;;;;;;;;;;;;;;;;;;5035923;28;7108;-64
2022/12/10 05:11:31;;;;;;;;;;;;;;;;;;5035094;28;7375;-64
2022/12/10 05:13:58;;;;;;;;;;;;;;;;;;5034804;28;7109;-64
2022/12/10 05:16:26;;;;;;;;;;;;;;;;;;5034837;28;6950;-64
2022/12/10 05:19:01;;;;;;;;;;;;;;;;;;5035002;28;7653;-64
2022/12/10 05:23:27;;;;;;;;;;;;;;;;;;5035082;28;7020;-64
2022/12/10 05:24:15;;;;;;;;;;;;;;;;;;5033203;28;7249;-64
2022/12/10 05:26:41;;;;;;;;;;;;;;;;;;5035438;28;7127;-72
2022/12/10 05:29:20;;;;;;;;;;;;;;;;;;5034634;28;6984;-73
2022/12/10 05:31:46;;;;;;;;;;;;;;;;;;5034441;28;7115;-73
2022/12/10 05:34:11;;;;;;;;;;;;;;;;;;5035513;28;7092;-73
2022/12/10 05:36:37;;;;;;;;;;;;;;;;;;5035297;28;6923;-73
2022/12/10 05:39:03;;;;;;;;;;;;;;;;;;5034800;28;7096;-73
2022/12/10 05:41:34;;;;;;;;;;;;;;;;;;5034566;28;7019;-64
2022/12/10 05:44:00;;;;;;;;;;;;;;;;;;5034771;28;7065;-64
2022/12/10 05:46:37;;;;;;;;;;;;;;;;;;5034535;28;7110;-64
2022/12/10 05:49:05;;;;;;;;;;;;;;;;;;5034703;28;7067;-64
2022/12/10 05:51:32;;;;;;;;;;;;;;;;;;5034366;28;7017;-64
2022/12/10 05:54:12;;;;;;;;;;;;;;;;;;5034782;28;6946;-64
2022/12/10 05:56:38;;;;;;;;;;;;;;;;;;5034651;28;7431;-64
2022/12/10 06:02:06;;;;;;;;;;;;;;;;;;5034230;28;6988;-66
2022/12/10 06:04:41;;;;;;;;;;;;;;;;;;5034637;28;7140;-64
2022/12/10 06:07:06;;;;;;;;;;;;;;;;;;5034789;28;7050;-64
2022/12/10 06:09:39;;;;;;;;;;;;;;;;;;5034469;28;7128;-64
2022/12/10 06:12:05;;;;;;;;;;;;;;;;;;5034078;28;7138;-64
2022/12/10 06:14:31;;;;;;;;;;;;;;;;;;5034582;28;7030;-64
2022/12/10 06:16:56;;;;;;;;;;;;;;;;;;5034330;28;7104;-64
2022/12/10 06:19:28;;;;;;;;;;;;;;;;;;5034418;28;7285;-65
2022/12/10 06:21:54;;;;;;;;;;;;;;;;;;5034578;28;6992;-64
2022/12/10 06:24:20;;;;;;;;;;;;;;;;;;5034145;28;7383;-64
2022/12/10 06:29:46;;;;;;;;;;;;;;;;;;5035107;28;7159;-64
2022/12/10 06:32:11;;;;;;;;;;;;;;;;;;5033954;28;6916;-64
2022/12/10 06:34:37;;;;;;;;;;;;;;;;;;5034295;28;7599;-64
2022/12/10 06:37:25;;;;;;;;;;;;;;;;;;5034374;28;7444;-64
2022/12/10 06:39:53;;;;;;;;;;;;;;;;;;5034283;28;7423;-64
2022/12/10 06:42:22;;;;;;;;;;;;;;;;;;5016963;28;8966;-64
2022/12/10 06:44:47;;;;;;;;;;;;;;;;;;5038078;28;7250;-64
2022/12/10 06:47:18;;;;;;;;;;;;;;;;;;5037945;28;7375;-64
2022/12/10 06:49:43;;;;;;;;;;;;;;;;;;5037903;28;7162;-64
2022/12/10 06:52:09;;;;;;;;;;;;;;;;;;5036404;28;7082;-73
2022/12/10 06:54:35;;;;;;;;;;;;;;;;;;5037980;28;7102;-73
2022/12/10 06:57:02;;;;;;;;;;;;;;;;;;5038069;28;7287;-73
2022/12/10 06:59:28;;;;;;;;;;;;;;;;;;5038312;28;7405;-73
2022/12/10 07:01:54;;;;;;;;;;;;;;;;;;5037681;28;7035;-73
2022/12/10 07:04:20;;;;;;;;;;;;;;;;;;5037642;28;7381;-73
2022/12/10 07:06:52;;;;;;;;;;;;;;;;;;5037493;28;7008;-73
2022/12/10 07:09:18;;;;;;;;;;;;;;;;;;5037071;28;7469;-73
2022/12/10 07:11:44;;;;;;;;;;;;;;;;;;5037178;28;6953;-74
2022/12/10 07:14:15;;;;;;;;;;;;;;;;;;5037443;28;7126;-73
2022/12/10 07:16:40;;;;;;;;;;;;;;;;;;5037252;28;8230;-73
2022/12/10 07:19:09;;;;;;;;;;;;;;;;;;5037251;28;7432;-73
2022/12/10 07:21:37;;;;;;;;;;;;;;;;;;5037297;28;7430;-73
2022/12/10 07:24:28;;;;;;;;;;;;;;;;;;5036708;28;7360;-73
2022/12/10 07:26:53;;;;;;;;;;;;;;;;;;5036705;28;7046;-73
2022/12/10 07:29:26;;;;;;;;;;;;;;;;;;5036952;28;7139;-73
2022/12/10 07:31:52;;;;;;;;;;;;;;;;;;5037163;28;7156;-73
2022/12/10 07:34:17;;;;;;;;;;;;;;;;;;5037032;28;7400;-73
2022/12/10 07:36:43;;;;;;;;;;;;;;;;;;5037085;28;7384;-73
2022/12/10 07:39:16;;;;;;;;;;;;;;;;;;5036875;28;7136;-73
2022/12/10 07:41:44;;;;;;;;;;;;;;;;;;5036788;28;7152;-73
2022/12/10 07:44:12;;;;;;;;;;;;;;;;;;5036807;28;7166;-73
2022/12/10 07:46:49;;;;;;;;;;;;;;;;;;5036832;28;7231;-73
2022/12/10 07:49:15;;;;;;;;;;;;;;;;;;5036804;28;7212;-73
2022/12/10 07:51:44;;;;;;;;;;;;;;;;;;5036435;28;6967;-73
2022/12/10 07:54:10;;;;;;;;;;;;;;;;;;5036467;28;7203;-73
2022/12/10 07:56:36;;;;;;;;;;;;;;;;;;5036772;28;6941;-73
2022/12/10 07:59:20;;;;;;;;;;;;;;;;;;5036404;28;7018;-73
2022/12/10 08:01:46;;;;;;;;;;;;;;;;;;5036598;28;7212;-73
2022/12/10 08:04:13;;;;;;;;;;;;;;;;;;5036499;28;7051;-73
2022/12/10 08:06:38;;;;;;;;;;;;;;;;;;5036195;28;6921;-65
2022/12/10 08:09:04;;;;;;;;;;;;;;;;;;5036386;28;6971;-65
2022/12/10 08:11:29;;;;;;;;;;;;;;;;;;5036243;28;7007;-64
2022/12/10 08:13:55;;;;;;;;;;;;;;;;;;5036287;28;7191;-65
2022/12/10 08:16:30;;;;;;;;;;;;;;;;;;5036893;28;7162;-65
2022/12/10 08:21:59;;;;;;;;;;;;;;;;;;5035960;28;6952;-65
2022/12/10 08:24:32;;;;;;;;;;;;;;;;;;5035926;28;7111;-65
2022/12/10 08:26:58;;;;;;;;;;;;;;;;;;5035601;28;7087;-65
2022/12/10 08:29:40;;;;;;;;;;;;;;;;;;5035607;28;6912;-64
2022/12/10 08:32:06;;;;;;;;;;;;;;;;;;5035688;28;6959;-64
2022/12/10 08:34:31;;;;;;;;;;;;;;;;;;5036261;28;7162;-65
2022/12/10 08:36:57;;;;;;;;;;;;;;;;;;5035687;28;7217;-64
2022/12/10 08:39:22;;;;;;;;;;;;;;;;;;5035794;28;7171;-64
2022/12/10 08:41:59;;;;;;;;;;;;;;;;;;5035778;28;7142;-65
2022/12/10 08:44:24;;;;;;;;;;;;;;;;;;5035751;28;7210;-65
2022/12/10 08:46:50;;;;;;;;;;;;;;;;;;5035591;28;7140;-65
2022/12/10 08:49:22;;;;;;;;;;;;;;;;;;5035562;28;6988;-65
2022/12/10 08:51:48;;;;;;;;;;;;;;;;;;5035436;28;7138;-65
2022/12/10 08:54:23;;;;;;;;;;;;;;;;;;5035527;28;6974;-67
2022/12/10 08:56:49;;;;;;;;;;;;;;;;;;5035367;28;7248;-64
2022/12/10 08:59:42;;;;;;;;;;;;;;;;;;5035009;28;7233;-64
2022/12/10 09:02:10;;;;;;;;;;;;;;;;;;5035496;28;7190;-64
2022/12/10 09:04:49;;;;;;;;;;;;;;;;;;5017353;28;6936;-64
2022/12/10 09:07:15;;;;;;;;;;;;;;;;;;5034929;28;6949;-64
2022/12/10 09:09:40;;;;;;;;;;;;;;;;;;5034829;28;7205;-64
2022/12/10 09:12:06;;;;;;;;;;;;;;;;;;5035077;28;7297;-64
2022/12/10 09:14:43;;;;;;;;;;;;;;;;;;5035101;28;7416;-64
2022/12/10 09:17:08;;;;;;;;;;;;;;;;;;5035187;28;7166;-64
2022/12/10 09:19:34;;;;;;;;;;;;;;;;;;5034575;28;7644;-64
2022/12/10 09:22:00;;;;;;;;;;;;;;;;;;5035145;28;7219;-64
2022/12/10 09:24:26;;;;;;;;;;;;;;;;;;5034856;28;7065;-64
2022/12/10 09:26:52;;;;;;;;;;;;;;;;;;5035576;28;6973;-64
2022/12/10 09:29:29;;;;;;;;;;;;;;;;;;5035514;28;7704;-64
2022/12/10 09:31:55;;;;;;;;;;;;;;;;;;5034845;28;7116;-64
2022/12/10 09:34:21;;;;;;;;;;;;;;;;;;5034991;28;7035;-64
2022/12/10 09:36:47;;;;;;;;;;;;;;;;;;5034875;28;7068;-64
2022/12/10 09:39:13;;;;;;;;;;;;;;;;;;5034837;28;7346;-64
2022/12/10 09:41:57;;;;;;;;;;;;;;;;;;5035563;28;7170;-64
2022/12/10 09:44:41;;;;;;;;;;;;;;;;;;5034680;28;7188;-64
2022/12/10 09:47:09;;;;;;;;;;;;;;;;;;5033805;28;7082;-64
2022/12/10 09:49:54;;;;;;;;;;;;;;;;;;5034634;28;6962;-64
2022/12/10 09:52:23;;;;;;;;;;;;;;;;;;5034721;28;7138;-64
2022/12/10 09:54:53;;;;;;;;;;;;;;;;;;5035554;28;7125;-64
2022/12/10 09:57:25;;;;;;;;;;;;;;;;;;5034767;28;6932;-64
2022/12/10 09:59:53;;;;;;;;;;;;;;;;;;5034654;28;7076;-65
2022/12/10 10:02:31;;;;;;;;;;;;;;;;;;5034761;28;7137;-64
2022/12/10 10:05:03;;;;;;;;;;;;;;;;;;5034705;28;7301;-64
2022/12/10 10:07:31;;;;;;;;;;;;;;;;;;5034675;28;7222;-72
2022/12/10 10:15:49;;;;;;;;;;;;;;;;;;5034926;28;6959;-72
2022/12/10 10:18:23;;;;;;;;;;;;;;;;;;5037864;28;7190;-72
2022/12/10 10:20:50;;;;;;;;;;;;;;;;;;5038401;28;7381;-72
2022/12/10 10:23:22;;;;;;;;;;;;;;;;;;5038212;28;7166;-72
2022/12/10 10:25:48;;;;;;;;;;;;;;;;;;5038488;28;7200;-72
2022/12/10 10:28:22;;;;;;;;;;;;;;;;;;5020283;28;7014;-72
2022/12/10 10:30:50;;;;;;;;;;;;;;;;;;5038224;28;7079;-72
2022/12/10 10:39:39;;;;;;;;;;;;;;;;;;5023446;28;6737;-72
2022/12/10 10:42:09;;;;;;;;;;;;;;;;;;5024834;28;7340;-72
2022/12/10 10:44:36;;;;;;;;;;;;;;;;;;5017988;28;7159;-72
2022/12/10 10:47:04;;;;;;;;;;;;;;;;;;5017920;28;7403;-72
2022/12/10 10:55:52;;;;;;;;;;;;;;;;;;5037772;28;7049;-72
2022/12/10 10:58:22;;;;;;;;;;;;;;;;;;5036927;28;7093;-72
2022/12/10 11:04:04;;;;;;;;;;;;;;;;;;5037276;28;7044;-72
2022/12/10 11:06:29;;;;;;;;;;;;;;;;;;5037642;28;7418;-72
2022/12/10 11:09:27;;;;;;;;;;;;;;;;;;5037362;28;7113;-72
2022/12/10 11:12:05;;;;;;;;;;;;;;;;;;5037164;28;7320;-73
2022/12/10 11:14:45;;;;;;;;;;;;;;;;;;5037376;28;7145;-72
2022/12/10 11:17:12;;;;;;;;;;;;;;;;;;5036354;28;7193;-72
2022/12/10 11:22:30;;;;;;;;;;;;;;;;;;5037614;28;6965;-64
2022/12/10 11:24:57;;;;;;;;;;;;;;;;;;5033537;28;6975;-64
2022/12/10 11:30:33;;;;;;;;;;;;;;;;;;5030626;28;6697;-64
2022/12/10 11:45:24;;;;;;;;;;;;;;;;;;5020920;28;6701;-64
2022/12/10 11:50:58;;;;;;;;;;;;;;;;;;5036925;28;6957;-64
2022/12/10 11:53:24;;;;;;;;;;;;;;;;;;5036487;28;7055;-64
2022/12/10 11:56:08;;;;;;;;;;;;;;;;;;5036702;28;7106;-64
2022/12/10 12:01:38;;;;;;;;;;;;;;;;;;5026790;28;6744;-64
2022/12/10 12:10:41;;;;;;;;;;;;;;;;;;5036046;28;6919;-64
2022/12/10 12:13:21;;;;;;;;;;;;;;;;;;5036314;28;7123;-64
2022/12/10 12:19:15;;;;;;;;;;;;;;;;;;5035967;28;6709;-64
2022/12/10 12:21:44;;;;;;;;;;;;;;;;;;5036230;28;7395;-64
2022/12/10 12:24:46;;;;;;;;;;;;;;;;;;5035904;28;7574;-64
2022/12/10 12:27:23;;;;;;;;;;;;;;;;;;4975029;28;7122;-64
2022/12/10 12:30:10;;;;;;;;;;;;;;;;;;5028311;28;7379;-64
2022/12/10 12:35:35;;;;;;;;;;;;;;;;;;5036323;28;7074;-64
2022/12/10 12:38:28;;;;;;;;;;;;;;;;;;5035727;28;7083;-64
2022/12/10 12:41:03;;;;;;;;;;;;;;;;;;5034852;28;7173;-64
2022/12/10 12:43:49;;;;;;;;;;;;;;;;;;5035541;28;7410;-64
2022/12/10 12:46:34;;;;;;;;;;;;;;;;;;5036623;28;7215;-64
2022/12/10 12:49:04;;;;;;;;;;;;;;;;;;5035410;28;7067;-64
2022/12/10 12:51:40;;;;;;;;;;;;;;;;;;5035626;28;7269;-64
2022/12/10 12:54:10;;;;;;;;;;;;;;;;;;5035381;28;7082;-64
2022/12/10 12:56:54;;;;;;;;;;;;;;;;;;5035648;28;7140;-63
2022/12/10 12:59:55;;;;;;;;;;;;;;;;;;5035356;28;6956;-64
2022/12/10 13:05:21;;;;;;;;;;;;;;;;;;5035311;28;7014;-64
2022/12/10 13:11:24;;;;;;;;;;;;;;;;;;5034913;28;6706;-64
2022/12/10 13:14:08;;;;;;;;;;;;;;;;;;5035268;28;7564;-64
2022/12/10 13:16:48;;;;;;;;;;;;;;;;;;5035232;28;7293;-64
2022/12/10 13:19:19;;;;;;;;;;;;;;;;;;5035000;28;6998;-63
2022/12/10 13:21:55;;;;;;;;;;;;;;;;;;5035232;28;7071;-63
2022/12/10 13:33:20;;;;;;;;;;;;;;;;;;5035412;28;7063;-64
2022/12/10 13:36:25;;;;;;;;;;;;;;;;;;5034004;28;6950;-64
2022/12/10 13:39:11;;;;;;;;;;;;;;;;;;4961456;28;7170;-64
2022/12/10 13:45:04;;;;;;;;;;;;;;;;;;4974453;28;6928;-64
2022/12/10 13:47:35;;;;;;;;;;;;;;;;;;4973745;28;7063;-64
2022/12/10 13:59:36;;;;;;;;;;;;;;;;;;4973524;28;6681;-64
2022/12/10 14:02:20;;;;;;;;;;;;;;;;;;4973640;28;7578;-64
2022/12/10 14:05:04;;;;;;;;;;;;;;;;;;4973198;28;7046;-64
2022/12/10 14:07:32;;;;;;;;;;;;;;;;;;4973614;28;7272;-64
2022/12/10 14:10:00;;;;;;;;;;;;;;;;;;4999431;28;7198;-64
2022/12/10 14:15:38;;;;;;;;;;;;;;;;;;5014611;28;6924;-63
2022/12/10 14:18:11;;;;;;;;;;;;;;;;;;5007474;28;8525;-64
2022/12/10 14:20:56;;;;;;;;;;;;;;;;;;5034360;28;7047;-64
2022/12/10 14:26:13;;;;;;;;;;;;;;;;;;5033552;28;6980;-64
2022/12/10 14:29:15;;;;;;;;;;;;;;;;;;5034277;28;7064;-64
2022/12/10 14:31:47;;;;;;;;;;;;;;;;;;4973423;28;7564;-63
2022/12/10 14:34:44;;;;;;;;;;;;;;;;;;4973747;28;7165;-64
2022/12/10 14:37:14;;;;;;;;;;;;;;;;;;4973653;28;7539;-64
2022/12/10 14:39:41;;;;;;;;;;;;;;;;;;4973529;28;6922;-64
2022/12/10 14:42:12;;;;;;;;;;;;;;;;;;4964581;28;7012;-64
2022/12/10 14:44:51;;;;;;;;;;;;;;;;;;4954116;29;6913;-64
2022/12/10 14:47:19;;;;;;;;;;;;;;;;;;4954322;29;7032;-64
2022/12/10 14:49:46;;;;;;;;;;;;;;;;;;4953610;29;6801;-64
2022/12/10 14:52:18;;;;;;;;;;;;;;;;;;4953951;29;7243;-72
2022/12/10 14:54:45;;;;;;;;;;;;;;;;;;4953996;29;7209;-72
2022/12/10 14:57:35;;;;;;;;;;;;;;;;;;4953966;29;7098;-72
2022/12/10 15:00:09;;;;;;;;;;;;;;;;;;4954027;29;7194;-72
2022/12/10 15:02:39;;;;;;;;;;;;;;;;;;4954172;29;7082;-72
2022/12/10 15:08:16;;;;;;;;;;;;;;;;;;4997931;28;6677;-72
2022/12/10 15:10:44;;;;;;;;;;;;;;;;;;4997273;28;6920;-72
2022/12/10 15:13:37;;;;;;;;;;;;;;;;;;4996889;28;6853;-72
2022/12/10 15:16:28;;;;;;;;;;;;;;;;;;4992828;28;8410;-72
2022/12/10 15:18:54;;;;;;;;;;;;;;;;;;4997723;28;6989;-72
2022/12/10 15:21:22;;;;;;;;;;;;;;;;;;4997962;28;7398;-72
2022/12/10 15:26:51;;;;;;;;;;;;;;;;;;5034993;28;6689;-72
2022/12/10 15:29:25;;;;;;;;;;;;;;;;;;5037176;28;7383;-72
2022/12/10 15:32:24;;;;;;;;;;;;;;;;;;5037267;28;7052;-72
2022/12/10 15:35:01;;;;;;;;;;;;;;;;;;5037655;28;7159;-72
2022/12/10 15:37:33;;;;;;;;;;;;;;;;;;5037855;28;7199;-72
2022/12/10 15:40:01;;;;;;;;;;;;;;;;;;5036872;28;7176;-72
2022/12/10 15:42:30;;;;;;;;;;;;;;;;;;5037078;28;7203;-71
2022/12/10 15:50:44;;;;;;;;;;;;;;;;;;5037166;28;6904;-71
2022/12/10 15:56:12;;;;;;;;;;;;;;;;;;5036696;28;6677;-72
2022/12/10 16:01:24;;;;;;;;;;;;;;;;;;5036727;28;6911;-72
2022/12/10 16:04:09;;;;;;;;;;;;;;;;;;5036544;28;7258;-72
2022/12/10 16:06:35;;;;;;;;;;;;;;;;;;5036557;28;6802;-72
2022/12/10 16:09:00;;;;;;;;;;;;;;;;;;5036202;28;7213;-72
2022/12/10 16:14:29;;;;;;;;;;;;;;;;;;5036071;28;6933;-64
2022/12/10 16:16:55;;;;;;;;;;;;;;;;;;5035975;28;7007;-64
2022/12/10 16:19:22;;;;;;;;;;;;;;;;;;5036310;28;7282;-63
2022/12/10 16:21:48;;;;;;;;;;;;;;;;;;5036218;28;7457;-64
2022/12/10 16:24:30;;;;;;;;;;;;;;;;;;5035880;28;7390;-64
2022/12/10 16:26:55;;;;;;;;;;;;;;;;;;5036227;28;7312;-64
2022/12/10 16:29:29;;;;;;;;;;;;;;;;;;5036984;28;7030;-64
2022/12/10 16:31:54;;;;;;;;;;;;;;;;;;5035906;28;7023;-64
2022/12/10 16:34:20;;;;;;;;;;;;;;;;;;5018143;28;7490;-64
2022/12/10 16:36:45;;;;;;;;;;;;;;;;;;5035937;28;7121;-64
2022/12/10 16:39:12;;;;;;;;;;;;;;;;;;5035817;28;7103;-64
2022/12/10 16:41:37;;;;;;;;;;;;;;;;;;5035743;28;7055;-64
2022/12/10 16:44:03;;;;;;;;;;;;;;;;;;5035802;28;7134;-64
2022/12/10 16:46:42;;;;;;;;;;;;;;;;;;5035648;28;7349;-64
2022/12/10 16:49:08;;;;;;;;;;;;;;;;;;5036475;28;6868;-64
2022/12/10 16:51:34;;;;;;;;;;;;;;;;;;5035435;28;7407;-64
2022/12/10 16:54:00;;;;;;;;;;;;;;;;;;5035449;28;7209;-64
2022/12/10 16:56:49;;;;;;;;;;;;;;;;;;5035412;28;7176;-64
2022/12/10 16:59:15;;;;;;;;;;;;;;;;;;5036177;28;7004;-64
2022/12/10 17:01:40;;;;;;;;;;;;;;;;;;5035469;28;7033;-64
2022/12/10 17:04:08;;;;;;;;;;;;;;;;;;5035208;28;7805;-64
2022/12/10 17:06:33;;;;;;;;;;;;;;;;;;5035317;28;6964;-64
2022/12/10 17:08:59;;;;;;;;;;;;;;;;;;5035125;28;7143;-64
2022/12/10 17:11:56;;;;;;;;;;;;;;;;;;5035257;28;7312;-64
2022/12/10 17:14:26;;;;;;;;;;;;;;;;;;5035033;28;7151;-64
2022/12/10 17:16:55;;;;;;;;;;;;;;;;;;5035256;28;7216;-64
2022/12/10 17:19:21;;;;;;;;;;;;;;;;;;5035180;28;7165;-64
2022/12/10 17:21:46;;;;;;;;;;;;;;;;;;5035086;28;7559;-64
2022/12/10 17:24:12;;;;;;;;;;;;;;;;;;5035078;28;7146;-64
2022/12/10 17:26:42;;;;;;;;;;;;;;;;;;5033010;28;7134;-64
2022/12/10 17:35:08;;;;;;;;;;;;;;;;;;5035199;28;7197;-64
2022/12/10 17:37:36;;;;;;;;;;;;;;;;;;5034980;28;7382;-64
2022/12/10 17:40:18;;;;;;;;;;;;;;;;;;5034744;28;7145;-64
2022/12/10 17:42:44;;;;;;;;;;;;;;;;;;5034651;28;7499;-64
2022/12/10 17:45:14;;;;;;;;;;;;;;;;;;5034838;28;7142;-63
2022/12/10 17:47:40;;;;;;;;;;;;;;;;;;5035031;28;7168;-64
2022/12/10 17:53:22;;;;;;;;;;;;;;;;;;5034901;28;6955;-64
2022/12/10 17:55:58;;;;;;;;;;;;;;;;;;5034754;28;7358;-72
2022/12/10 17:58:24;;;;;;;;;;;;;;;;;;5034563;28;7128;-72
2022/12/10 18:03:53;;;;;;;;;;;;;;;;;;5034805;28;6688;-72
2022/12/10 18:06:21;;;;;;;;;;;;;;;;;;5034688;28;6978;-72
2022/12/10 18:11:50;;;;;;;;;;;;;;;;;;5034170;28;6932;-72
2022/12/10 18:14:18;;;;;;;;;;;;;;;;;;5035377;28;7229;-71
2022/12/10 18:16:46;;;;;;;;;;;;;;;;;;5034706;28;6802;-72
2022/12/10 18:19:14;;;;;;;;;;;;;;;;;;5034463;28;7071;-72
2022/12/10 18:21:46;;;;;;;;;;;;;;;;;;5034505;28;7160;-72
2022/12/10 18:24:14;;;;;;;;;;;;;;;;;;5034621;28;7045;-72
2022/12/10 18:26:42;;;;;;;;;;;;;;;;;;5034078;28;6815;-71
2022/12/10 18:29:18;;;;;;;;;;;;;;;;;;5034443;28;7139;-72
2022/12/10 18:31:44;;;;;;;;;;;;;;;;;;5034277;28;7072;-72
2022/12/10 18:34:34;;;;;;;;;;;;;;;;;;5034174;28;8038;-72
2022/12/10 18:40:04;;;;;;;;;;;;;;;;;;5036691;28;6673;-72
2022/12/10 18:42:30;;;;;;;;;;;;;;;;;;5038252;28;7219;-72
2022/12/10 18:45:11;;;;;;;;;;;;;;;;;;5038780;28;7236;-72
2022/12/10 18:47:37;;;;;;;;;;;;;;;;;;5037957;28;7206;-72
2022/12/10 18:50:04;;;;;;;;;;;;;;;;;;5038087;28;7078;-72
2022/12/10 18:53:02;;;;;;;;;;;;;;;;;;5037925;28;7245;-71
2022/12/10 18:55:29;;;;;;;;;;;;;;;;;;5037621;28;7177;-72
2022/12/10 18:57:54;;;;;;;;;;;;;;;;;;5037849;28;7071;-72
2022/12/10 19:00:23;;;;;;;;;;;;;;;;;;5038040;28;7364;-72
2022/12/10 19:02:49;;;;;;;;;;;;;;;;;;5037579;28;6823;-72
2022/12/10 19:05:15;;;;;;;;;;;;;;;;;;5037746;28;7102;-72
2022/12/10 19:07:41;;;;;;;;;;;;;;;;;;5037665;28;7991;-72
2022/12/10 19:10:18;;;;;;;;;;;;;;;;;;5037939;28;7051;-72
2022/12/10 19:12:43;;;;;;;;;;;;;;;;;;5037560;28;7286;-72
2022/12/10 19:15:18;;;;;;;;;;;;;;;;;;5037719;28;7178;-72
2022/12/10 19:17:45;;;;;;;;;;;;;;;;;;5037063;28;8398;-72
2022/12/10 19:20:15;;;;;;;;;;;;;;;;;;5037338;28;7396;-72
2022/12/10 19:22:53;;;;;;;;;;;;;;;;;;5037520;28;6988;-72
2022/12/10 19:28:14;;;;;;;;;;;;;;;;;;5037296;28;6952;-64
2022/12/10 19:30:40;;;;;;;;;;;;;;;;;;5037139;28;7645;-64
2022/12/10 19:33:06;;;;;;;;;;;;;;;;;;5037239;28;7611;-64
2022/12/10 19:35:32;;;;;;;;;;;;;;;;;;5036951;28;6975;-64
2022/12/10 19:37:58;;;;;;;;;;;;;;;;;;5036950;28;7239;-64
2022/12/10 19:40:26;;;;;;;;;;;;;;;;;;5036995;28;7117;-64
2022/12/10 19:42:52;;;;;;;;;;;;;;;;;;5037402;28;7476;-64
2022/12/10 19:45:20;;;;;;;;;;;;;;;;;;5038108;28;7180;-64
2022/12/10 19:47:47;;;;;;;;;;;;;;;;;;5036945;28;6882;-64
2022/12/10 19:53:22;;;;;;;;;;;;;;;;;;5036533;28;6712;-64
2022/12/10 19:55:48;;;;;;;;;;;;;;;;;;5036559;28;7890;-64
2022/12/10 19:58:23;;;;;;;;;;;;;;;;;;5036777;28;6900;-64
2022/12/10 20:00:49;;;;;;;;;;;;;;;;;;5036607;28;7179;-64
2022/12/10 20:03:14;;;;;;;;;;;;;;;;;;5036579;28;7046;-64
2022/12/10 20:05:40;;;;;;;;;;;;;;;;;;5036665;28;7395;-64
2022/12/10 20:11:02;;;;;;;;;;;;;;;;;;5036694;28;7191;-71
2022/12/10 20:13:27;;;;;;;;;;;;;;;;;;5036351;28;7068;-71
2022/12/10 20:15:53;;;;;;;;;;;;;;;;;;5036386;28;7110;-71
2022/12/10 20:18:30;;;;;;;;;;;;;;;;;;5036419;28;7229;-72
2022/12/10 20:20:56;;;;;;;;;;;;;;;;;;5036297;28;7069;-72
2022/12/10 20:23:31;;;;;;;;;;;;;;;;;;5035935;28;7128;-72
2022/12/10 20:26:00;;;;;;;;;;;;;;;;;;5036014;28;7108;-72
2022/12/10 20:28:26;;;;;;;;;;;;;;;;;;5034823;28;8684;-72